MGH932 EYVI-LTAI
Flight info
| Callsign | MGH932 |
|---|---|
| Flight time | N/A |
| Altitude | 38000 |
| Route | UPASI DCT TUNGA DCT SUWGI M985 EVINA/N0485F390 DCT KELEL DCT PERIT DCT ULMIN DCT ADORU UL606 CRD UL854 KOZLU |
| Aircraft | B77W/H-SDE1E2E3FGHIJ2J3J4J5M1RWXY/LB1D1 |
Departure
| Time | 2026-04-30 12:20 |
|---|---|
| Airport | Vilnius International Airport (EYVI) |
Arrival
| Time | N/A |
|---|---|
| Airport | Antalya International Airport (LTAI) |
| Time | Latitude | Longitude | Altitude | Speed | Heading |
|---|---|---|---|---|---|
| 2026-04-30 11:44 | 54.64467 | 25.28748 | 659 ft | 0 kts | 241° |
| 2026-04-30 12:13 | 54.64455 | 25.28709 | 657 ft | 7 kts | 241° |
| 2026-04-30 12:14 | 54.64412 | 25.28645 | 660 ft | 9 kts | 189° |
| 2026-04-30 12:14 | 54.64344 | 25.28659 | 660 ft | 10 kts | 174° |
| 2026-04-30 12:14 | 54.64267 | 25.28672 | 659 ft | 12 kts | 174° |
| 2026-04-30 12:14 | 54.64180 | 25.28687 | 655 ft | 13 kts | 174° |
| 2026-04-30 12:15 | 54.64079 | 25.28705 | 652 ft | 16 kts | 174° |
| 2026-04-30 12:15 | 54.63960 | 25.28724 | 650 ft | 19 kts | 175° |
| 2026-04-30 12:15 | 54.63820 | 25.28747 | 642 ft | 20 kts | 174° |
| 2026-04-30 12:15 | 54.63704 | 25.28764 | 638 ft | 13 kts | 183° |
| 2026-04-30 12:16 | 54.63608 | 25.28712 | 633 ft | 16 kts | 202° |
| 2026-04-30 12:16 | 54.63488 | 25.28629 | 628 ft | 21 kts | 202° |
| 2026-04-30 12:16 | 54.63344 | 25.28529 | 619 ft | 23 kts | 202° |
| 2026-04-30 12:16 | 54.63194 | 25.28425 | 619 ft | 23 kts | 201° |
| 2026-04-30 12:17 | 54.62891 | 25.28216 | 612 ft | 24 kts | 202° |
| 2026-04-30 12:17 | 54.62739 | 25.28110 | 603 ft | 24 kts | 202° |
| 2026-04-30 12:17 | 54.62622 | 25.28027 | 612 ft | 15 kts | 202° |
| 2026-04-30 12:18 | 54.62534 | 25.27974 | 613 ft | 9 kts | 187° |
| 2026-04-30 12:18 | 54.62469 | 25.27987 | 615 ft | 8 kts | 171° |
| 2026-04-30 12:18 | 54.62418 | 25.27982 | 609 ft | 8 kts | 195° |
| 2026-04-30 12:18 | 54.62381 | 25.27928 | 626 ft | 8 kts | 261° |
| 2026-04-30 12:19 | 54.62414 | 25.27885 | 625 ft | 3 kts | 17° |
| 2026-04-30 12:19 | 54.62415 | 25.27886 | 625 ft | 0 kts | 19° |
| 2026-04-30 12:20 | 54.62427 | 25.27894 | 624 ft | 17 kts | 21° |
| 2026-04-30 12:20 | 54.62852 | 25.28188 | 603 ft | 112 kts | 22° |
| 2026-04-30 12:20 | 54.63814 | 25.28849 | 645 ft | 183 kts | 20° |
| 2026-04-30 12:20 | 54.65046 | 25.29747 | 1380 ft | 182 kts | 19° |
| 2026-04-30 12:21 | 54.66165 | 25.30523 | 2627 ft | 171 kts | 18° |
| 2026-04-30 12:21 | 54.67333 | 25.31315 | 3111 ft | 193 kts | 18° |
| 2026-04-30 12:21 | 54.68682 | 25.32230 | 3439 ft | 223 kts | 19° |
| 2026-04-30 12:21 | 54.70164 | 25.33247 | 3961 ft | 242 kts | 19° |
| 2026-04-30 12:22 | 54.71725 | 25.34324 | 5006 ft | 242 kts | 20° |
| 2026-04-30 12:22 | 54.73284 | 25.35403 | 5970 ft | 244 kts | 20° |
| 2026-04-30 12:22 | 54.74888 | 25.36512 | 6885 ft | 251 kts | 20° |